Pagina principale
METAR-TAF:

METAR-TAF

Aeroporti :

Bolzano, Italia

latitudine: 46-28N, longitudine: 011-20E, altezza: 262 m

Osservazione

Il bollettino è stato emesso 34 minuti fa, alle 18:50 UTC
Vento 7 kt da sud
Temperature 23°C
Umidità 44%
Pressione 1017 hPa
Visibilità 10 km o più
Nubi sparse ad un'altezza di 8000 ft

METAR: LIPB 231850Z 18007KT 9999 SCT080 23/10 Q1017

Ora: 21:24 (19:24 UTC)

Previsione

Il bollettino è stato emesso 2 ore e 24 minuti fa, alle 17:00 UTC
Previsione valida dal 23 alle 18 UTC al 24 alle 18 UTC
Vento 5 kt da direzioni variabili
Visibilità 10 km o più
Temporaneamente
dal 24 alle 15 UTC al 24 alle 18 UTC
pioggia

TAF: LIPB 231700Z 2318/2418 VRB05KT 9999 SCT60 TEMPO 2415/2418 RA

Osservazioni e previsioni meteorologiche di più di 4000 aeroporti (messaggi METAR e TAF).

Le stazioni disponibili sono rappresentate dai dischi gialli e rossi sulla carta.

Puntare il mouse per vedere il nome della stazione.

Clicca sopra per visualizzare le osservazioni e previsioni meteorologiche.

Per cambiare la mappa : fare clic sui pulsanti verdi con una croce nera per ingrandire, il pulsante verde con un trattino per diminuire, o sulla freccia verde per le mappe adiacenti.


METAR-TAF: